Tasman Commander — VRAE4 — position and weather

sailwx.info

Track history (hours):
 
Tides and Currents Weather Stations Pressure Air Temp Water Temp Dewpoint Dewpoint Depression Visibility Wind Speed Wind Dir Waves Ship Positions

Tasman Commander

Last reported at 2018-Jun-22 00:00 UTC. Time now 2018-Jun-22 11:11 UTC.
Position S 09°30' E 147°06'.

Length 184 m; beam 27 m; draft 10 m.

Type: Cargo ship. MMSI: 477440500.

Wind from 140 at 25 knots

Barometer 1013.6 mb
Air temperature 26.0 ° C
Visibility: greater than 27.0 NM
Dewpoint 22.3 ° C

Date/timePositionNaut miles runAvg speedWind from/ knotsBaromVisibWave heightAir tempDewpointWater temp
2018-Jun-22 00:00S 09°30' E 147°06'59712.4 140 / 251013.627.0 26.022.3
2018-Jun-20 00:00S 17°54' E 152°36'54613.8 180 / 201019.910.8 22.515.9
2018-Jun-18 08:26S 26°59' E 153°14'613.6
2018-Jun-18 07:59S 27°03' E 153°18'814.2
2018-Jun-18 07:24S 27°11' E 153°21'1112.8
2018-Jun-18 06:34S 27°19' E 153°12'4 0.1
2018-Jun-16 18:03S 27°23' E 153°10'0 0.0
2018-Jun-16 17:57S 27°23' E 153°10'0 0.0
2018-Jun-16 17:27S 27°23' E 153°10'0 0.0
2018-Jun-16 16:45S 27°23' E 153°10'0 0.0
2018-Jun-16 12:09S 27°23' E 153°10'0 0.0
2018-Jun-16 11:58S 27°23' E 153°10'0 0.9
2018-Jun-16 11:30S 27°22' E 153°10'0 0.0
2018-Jun-16 11:00S 27°22' E 153°10'0 0.0
2018-Jun-16 10:28S 27°22' E 153°10'0 0.0
2018-Jun-15 21:30S 27°22' E 153°10'0 0.0
2018-Jun-15 21:00S 27°22' E 153°10'0 0.0
2018-Jun-15 20:30S 27°22' E 153°10'0 0.0
2018-Jun-15 19:48S 27°22' E 153°10'0 0.0
2018-Jun-15 19:30S 27°22' E 153°10'0 0.0
2018-Jun-15 19:00S 27°22' E 153°10'0 0.0
2018-Jun-15 18:30S 27°22' E 153°10'1 1.0
2018-Jun-15 17:50S 27°22' E 153°11'3 8.5
2018-Jun-15 17:30S 27°19' E 153°12'612.1
2018-Jun-15 17:00S 27°16' E 153°17'612.1
2018-Jun-15 16:30S 27°10' E 153°21'611.8
2018-Jun-15 15:59S 27°05' E 153°18'611.8
2018-Jun-15 15:30S 27°00' E 153°14'713.4
2018-Jun-15 15:00S 26°54' E 153°11'611.3
2018-Jun-15 14:30S 26°49' E 153°11'6 7.5
2018-Jun-15 13:42S 26°43' E 153°13'1 5.6
2018-Jun-15 13:30S 26°43' E 153°14'610.7
2018-Jun-15 12:59S 26°44' E 153°20'44314.3
2018-Jun-14 06:00S 29°42' E 161°00'9515.9 020 / 101018.410.8 17.016.2
2018-Jun-14 00:00S 30°18' E 162°42'25714.3 330 / 221019.110.8 20.517.3
2018-Jun-13 06:00S 32°00' E 167°18'18215.1 260 / 51014.710.8 18.014.6
2018-Jun-12 18:00S 33°12' E 170°36'16914.1 230 / 151011.910.8 16.014.3
2018-Jun-12 06:00S 34°30' E 173°36'   280 / 181009.210.8 16.512.0
Track history (hours):
 
Tides and Currents Weather Stations Pressure Air Temp Water Temp Dewpoint Dewpoint Depression Visibility Wind Speed Wind Dir Waves Ship Positions

Tasman Commander

Last reported at 2018-Jun-22 00:00 UTC. Time now 2018-Jun-22 11:11 UTC.
Position S 09°30' E 147°06'.

Length 184 m; beam 27 m; draft 10 m.

Type: Cargo ship. MMSI: 477440500.

Wind from 140 at 25 knots

Barometer 1013.6 mb
Air temperature 26.0 ° C
Visibility: greater than 27.0 NM
Dewpoint 22.3 ° C

Date/timePositionNaut miles runAvg speedWind from/ knotsBaromVisibWave heightAir tempDewpointWater temp
2018-Jun-22 00:00S 09°30' E 147°06'59712.4 140 / 251013.627.0 26.022.3
2018-Jun-20 00:00S 17°54' E 152°36'54613.8 180 / 201019.910.8 22.515.9
2018-Jun-18 08:26S 26°59' E 153°14'613.6
2018-Jun-18 07:59S 27°03' E 153°18'814.2
2018-Jun-18 07:24S 27°11' E 153°21'1112.8
2018-Jun-18 06:34S 27°19' E 153°12'4 0.1
2018-Jun-16 18:03S 27°23' E 153°10'0 0.0
2018-Jun-16 17:57S 27°23' E 153°10'0 0.0
2018-Jun-16 17:27S 27°23' E 153°10'0 0.0
2018-Jun-16 16:45S 27°23' E 153°10'0 0.0
2018-Jun-16 12:09S 27°23' E 153°10'0 0.0
2018-Jun-16 11:58S 27°23' E 153°10'0 0.9
2018-Jun-16 11:30S 27°22' E 153°10'0 0.0
2018-Jun-16 11:00S 27°22' E 153°10'0 0.0
2018-Jun-16 10:28S 27°22' E 153°10'0 0.0
2018-Jun-15 21:30S 27°22' E 153°10'0 0.0
2018-Jun-15 21:00S 27°22' E 153°10'0 0.0
2018-Jun-15 20:30S 27°22' E 153°10'0 0.0
2018-Jun-15 19:48S 27°22' E 153°10'0 0.0
2018-Jun-15 19:30S 27°22' E 153°10'0 0.0
2018-Jun-15 19:00S 27°22' E 153°10'0 0.0
2018-Jun-15 18:30S 27°22' E 153°10'1 1.0
2018-Jun-15 17:50S 27°22' E 153°11'3 8.5
2018-Jun-15 17:30S 27°19' E 153°12'612.1
2018-Jun-15 17:00S 27°16' E 153°17'612.1
2018-Jun-15 16:30S 27°10' E 153°21'611.8
2018-Jun-15 15:59S 27°05' E 153°18'611.8
2018-Jun-15 15:30S 27°00' E 153°14'713.4
2018-Jun-15 15:00S 26°54' E 153°11'611.3
2018-Jun-15 14:30S 26°49' E 153°11'6 7.5
2018-Jun-15 13:42S 26°43' E 153°13'1 5.6
2018-Jun-15 13:30S 26°43' E 153°14'610.7
2018-Jun-15 12:59S 26°44' E 153°20'44314.3
2018-Jun-14 06:00S 29°42' E 161°00'9515.9 020 / 101018.410.8 17.016.2
2018-Jun-14 00:00S 30°18' E 162°42'25714.3 330 / 221019.110.8 20.517.3
2018-Jun-13 06:00S 32°00' E 167°18'18215.1 260 / 51014.710.8 18.014.6
2018-Jun-12 18:00S 33°12' E 170°36'16914.1 230 / 151011.910.8 16.014.3
2018-Jun-12 06:00S 34°30' E 173°36'   280 / 181009.210.8 16.512.0

Dump ship's entire track history